Terminal Aerodrome Forecast
Issued by NWS

Home | Current Version | Previous Version | Graphics & Text | Print | Product List | Glossary On
Versions: 1 2 3 4 5 6 7 8 9 10 11 12 13 14 15 16 17 18 19 20 21
164
FTUS41 KCLE 181611 AAB
TAFFDY
TAF AMD
KFDY 181611Z 1816/1912 20008KT 2SM -SHRA BR OVC025 WS020/20040KT
     FM181800 20015G35KT 2SM -SHRA BR VCTS BKN003CB OVC015
      TEMPO 1818/1822 VRB25G45KT 1SM -TSRA
     FM182200 27020G35KT 3SM -SHRA BR OVC003
     FM190400 32020G35KT 5SM BR OVC010=

USA.gov is the U.S. government's official web portal to all federal, state and local government web resources and services.